Time;durP1;ratioP1;P1;durP2;ratioP2;P2;SDS_P1;SDS_P2;PMS_P1;PMS_P2;Temp;Humidity;BMP_temperature;BMP_pressure;BME280_temperature;BME280_humidity;BME280_pressure;Samples;Min_cycle;Max_cycle;Signal;HPM_P1;HPM_P2
2022/01/24 05:00:32;;;;;;;11.80;10.60;;;1.90;99.90;;;;;;5955715;23;21167;-65
2022/01/24 05:03:00;;;;;;;12.17;10.97;;;2.00;99.90;;;;;;5035930;28;20443;-66
2022/01/24 05:05:28;;;;;;;15.63;12.30;;;2.00;99.90;;;;;;5035617;28;20440;-66
2022/01/24 05:07:55;;;;;;;12.73;11.43;;;2.00;99.90;;;;;;5035834;28;20449;-66
2022/01/24 05:10:29;;;;;;;11.73;10.63;;;2.00;99.90;;;;;;5035902;28;20448;-66
2022/01/24 05:21:36;;;;;;;13.03;11.43;;;2.00;99.90;;;;;;5035999;28;20459;-66
2022/01/24 05:24:02;;;;;;;12.23;11.03;;;2.10;99.90;;;;;;5035742;28;20801;-66
2022/01/24 05:26:29;;;;;;;13.83;12.47;;;2.10;99.90;;;;;;5035783;28;20452;-67
2022/01/24 05:28:56;;;;;;;13.70;12.10;;;2.00;99.90;;;;;;5035940;28;20459;-67
2022/01/24 05:31:24;;;;;;;13.67;12.27;;;2.00;99.90;;;;;;5042394;28;20483;-67
2022/01/24 05:33:50;;;;;;;14.07;12.67;;;2.00;99.90;;;;;;5038568;28;20456;-66
2022/01/24 05:36:17;;;;;;;14.23;12.73;;;2.00;99.90;;;;;;5036567;28;20460;-66
2022/01/24 05:38:44;;;;;;;14.60;13.10;;;2.00;99.90;;;;;;5035554;28;20480;-66
2022/01/24 05:41:11;;;;;;;14.30;12.90;;;2.00;99.90;;;;;;5035930;28;20574;-68
2022/01/24 05:43:37;;;;;;;14.83;13.30;;;2.00;99.90;;;;;;5035668;28;20528;-66
2022/01/24 05:46:04;;;;;;;16.80;13.93;;;2.00;99.90;;;;;;5035611;28;20459;-68
2022/01/24 05:48:32;;;;;;;16.10;14.50;;;2.00;99.90;;;;;;5035745;28;20463;-68
2022/01/24 05:50:59;;;;;;;15.40;13.80;;;2.10;99.90;;;;;;5035921;28;20480;-66
2022/01/24 05:53:26;;;;;;;15.17;13.57;;;2.10;99.90;;;;;;5035958;28;20455;-66
2022/01/24 05:55:54;;;;;;;15.77;13.60;;;2.10;99.90;;;;;;5035735;28;20456;-69
2022/01/24 05:58:21;;;;;;;14.43;12.70;;;2.20;99.90;;;;;;5042128;28;20452;-67
2022/01/24 06:00:48;;;;;;;14.70;12.70;;;2.20;99.90;;;;;;5043242;28;20488;-68
2022/01/24 06:03:15;;;;;;;16.30;12.70;;;2.30;99.90;;;;;;5045944;28;20503;-67
2022/01/24 06:05:43;;;;;;;12.33;10.50;;;3.70;99.90;;;;;;5037336;28;20539;-68
2022/01/24 06:08:10;;;;;;;9.97;9.03;;;4.90;99.90;;;;;;5036358;28;20846;-68
2022/01/24 06:10:38;;;;;;;12.00;10.37;;;5.10;99.90;;;;;;5036403;28;20464;-67
2022/01/24 06:13:05;;;;;;;11.80;10.70;;;5.60;99.90;;;;;;5036296;28;20452;-68
2022/01/24 06:15:32;;;;;;;12.00;10.80;;;5.60;99.90;;;;;;5036454;28;20456;-68
2022/01/24 06:17:59;;;;;;;11.80;10.30;;;5.40;99.90;;;;;;5037321;28;20433;-69
2022/01/24 06:20:26;;;;;;;11.33;9.90;;;5.20;99.90;;;;;;5036680;28;20480;-68
2022/01/24 06:22:54;;;;;;;12.70;10.57;;;4.90;99.90;;;;;;5037122;28;20452;-68
2022/01/24 06:25:23;;;;;;;11.30;10.20;;;4.60;99.90;;;;;;5036735;28;20457;-68
2022/01/24 06:27:50;;;;;;;12.47;10.93;;;4.40;99.90;;;;;;5034911;28;20544;-68
2022/01/24 06:30:17;;;;;;;12.20;11.00;;;4.20;99.90;;;;;;5036666;28;20452;-67
2022/01/24 06:32:44;;;;;;;14.13;11.70;;;4.10;99.90;;;;;;5043993;28;20452;-66
2022/01/24 06:35:13;;;;;;;13.03;11.53;;;3.80;99.90;;;;;;5042535;28;20948;-66
2022/01/24 06:37:40;;;;;;;14.43;12.93;;;3.60;99.90;;;;;;5043348;28;20460;-67
2022/01/24 06:40:11;;;;;;;15.00;13.43;;;3.30;99.90;;;;;;5044441;28;20486;-67
2022/01/24 06:42:38;;;;;;;14.73;13.20;;;3.10;99.90;;;;;;5043293;28;20519;-67
2022/01/24 06:45:06;;;;;;;16.20;13.80;;;3.00;99.90;;;;;;5044539;28;20506;-67
2022/01/24 06:47:33;;;;;;;14.13;12.43;;;2.80;99.90;;;;;;5036247;28;20459;-70
2022/01/24 06:49:59;;;;;;;21.37;13.33;;;2.80;99.90;;;;;;5036814;28;20795;-67
2022/01/24 06:52:26;;;;;;;16.43;13.63;;;2.80;99.90;;;;;;5034497;28;20794;-67
2022/01/24 06:54:53;;;;;;;16.10;13.57;;;2.70;99.90;;;;;;5034937;28;20452;-67
2022/01/24 06:57:21;;;;;;;16.40;13.27;;;2.70;99.90;;;;;;5034980;28;20448;-67
2022/01/24 06:59:48;;;;;;;15.43;13.03;;;2.60;99.90;;;;;;5035179;28;20492;-68
2022/01/24 07:02:16;;;;;;;15.57;13.47;;;2.60;99.90;;;;;;5035823;28;20488;-68
2022/01/24 07:04:43;;;;;;;15.60;13.97;;;2.60;99.90;;;;;;5043380;28;20456;-68
2022/01/24 07:07:11;;;;;;;17.27;13.47;;;2.60;99.90;;;;;;5034973;28;20465;-68
2022/01/24 07:09:38;;;;;;;14.20;12.63;;;2.60;99.90;;;;;;5034665;28;20456;-67
2022/01/24 07:12:06;;;;;;;15.33;13.73;;;2.50;99.90;;;;;;5034630;28;20472;-68
2022/01/24 07:14:34;;;;;;;14.73;13.20;;;2.50;99.90;;;;;;5039096;28;20452;-66
2022/01/24 07:17:15;;;;;;;13.97;12.57;;;2.50;99.90;;;;;;5037721;28;20962;-68
2022/01/24 07:19:42;;;;;;;16.13;12.93;;;2.50;99.90;;;;;;5037895;28;20553;-67
2022/01/24 07:22:09;;;;;;;16.50;13.90;;;2.50;99.90;;;;;;5039074;28;20480;-67
2022/01/24 07:24:36;;;;;;;17.40;13.90;;;2.50;99.90;;;;;;5038799;28;20962;-66
2022/01/24 07:27:04;;;;;;;15.33;13.37;;;2.60;99.90;;;;;;5038573;28;20459;-68
2022/01/24 07:29:31;;;;;;;18.70;12.73;;;2.60;99.90;;;;;;5038193;28;20448;-67
2022/01/24 07:32:54;;;;;;;15.77;13.83;;;2.60;99.90;;;;;;5038333;28;21002;-67
2022/01/24 07:35:27;;;;;;;16.53;13.77;;;2.70;99.90;;;;;;5037576;28;20453;-68
2022/01/24 07:37:54;;;;;;;14.57;13.03;;;2.70;99.90;;;;;;5038401;28;20455;-66
2022/01/24 07:40:22;;;;;;;14.83;13.30;;;2.80;99.90;;;;;;5038202;28;20808;-67
2022/01/24 07:42:58;;;;;;;13.97;12.50;;;2.80;99.90;;;;;;5038470;28;20452;-68
2022/01/24 07:45:26;;;;;;;13.97;12.57;;;2.90;99.90;;;;;;5038044;28;20458;-68
2022/01/24 07:47:53;;;;;;;13.77;12.47;;;2.90;99.90;;;;;;5037820;28;20502;-67
2022/01/24 07:50:23;;;;;;;13.30;12.00;;;3.00;99.90;;;;;;5037985;28;20452;-68
2022/01/24 07:52:51;;;;;;;13.20;12.00;;;3.00;99.90;;;;;;5038241;28;20459;-66
2022/01/24 07:55:18;;;;;;;16.37;10.97;;;3.10;99.90;;;;;;5038108;28;20458;-67
2022/01/24 07:57:45;;;;;;;12.93;10.93;;;3.10;99.90;;;;;;5037626;28;20462;-67
2022/01/24 08:00:12;;;;;;;12.60;11.30;;;3.20;99.90;;;;;;5038196;28;20480;-67
2022/01/24 08:02:40;;;;;;;11.50;10.30;;;3.20;99.90;;;;;;5037611;28;20531;-68
2022/01/24 08:05:09;;;;;;;12.53;11.23;;;3.20;99.90;;;;;;5037464;28;20459;-68
2022/01/24 08:07:37;;;;;;;12.50;10.60;;;3.30;99.90;;;;;;5037492;28;20818;-68
2022/01/24 08:10:07;;;;;;;13.33;12.03;;;3.30;99.90;;;;;;5037862;28;20453;-67
2022/01/24 08:12:35;;;;;;;12.70;11.40;;;3.40;99.90;;;;;;5037179;28;20472;-68
2022/01/24 08:15:02;;;;;;;11.83;10.67;;;3.50;99.90;;;;;;5037030;28;20463;-68
2022/01/24 08:17:29;;;;;;;11.63;10.53;;;3.50;99.90;;;;;;5037091;28;20456;-67
2022/01/24 08:19:56;;;;;;;13.63;12.33;;;3.60;99.90;;;;;;5037381;28;20483;-68
2022/01/24 08:22:23;;;;;;;12.00;10.80;;;3.70;99.90;;;;;;5037502;28;20499;-68
2022/01/24 08:24:50;;;;;;;12.80;11.50;;;3.80;99.90;;;;;;5037103;28;20452;-68
2022/01/24 08:27:19;;;;;;;12.90;11.57;;;3.90;99.90;;;;;;5037190;28;20455;-67
2022/01/24 08:29:46;;;;;;;13.50;12.13;;;3.90;99.90;;;;;;5037627;28;20457;-68
2022/01/24 08:32:13;;;;;;;12.43;11.20;;;4.00;99.90;;;;;;5037380;28;20473;-67
2022/01/24 08:34:40;;;;;;;12.17;11.00;;;4.10;99.90;;;;;;5037684;28;20457;-67
2022/01/24 08:37:07;;;;;;;11.83;10.77;;;4.10;99.90;;;;;;5045645;28;20452;-66
2022/01/24 08:39:33;;;;;;;11.93;10.83;;;4.20;99.90;;;;;;5036402;28;20472;-67
2022/01/24 08:42:10;;;;;;;12.60;11.40;;;4.30;99.90;;;;;;5036199;28;20483;-67
2022/01/24 08:47:24;;;;;;;12.43;11.07;;;4.50;99.90;;;;;;5036205;28;20849;-67
2022/01/24 08:49:52;;;;;;;12.77;9.87;;;4.60;99.90;;;;;;5036355;28;20464;-68
2022/01/24 08:52:19;;;;;;;11.20;10.00;;;4.80;99.90;;;;;;5036300;28;20476;-68
2022/01/24 08:54:46;;;;;;;10.37;9.40;;;5.20;99.90;;;;;;5035929;28;20958;-68
2022/01/24 08:57:13;;;;;;;9.93;8.80;;;5.60;99.90;;;;;;5036002;28;20479;-69
2022/01/24 08:59:42;;;;;;;11.60;9.37;;;5.80;99.90;;;;;;5035722;28;20519;-67
2022/01/24 09:02:09;;;;;;;9.47;8.27;;;6.10;99.90;;;;;;5036487;28;20484;-67
2022/01/24 09:04:36;;;;;;;10.50;9.47;;;6.40;99.90;;;;;;5036018;28;20452;-67
2022/01/24 09:07:04;;;;;;;8.90;8.07;;;6.80;99.90;;;;;;5035627;28;20452;-67
2022/01/24 09:09:31;;;;;;;8.00;7.30;;;7.70;99.90;;;;;;5035860;28;20478;-67
2022/01/24 09:11:58;;;;;;;8.27;7.40;;;9.10;99.90;;;;;;5036980;28;20575;-67
2022/01/24 09:14:25;;;;;;;8.93;7.33;;;10.50;99.90;;;;;;5037123;28;20452;-67
2022/01/24 09:16:53;;;;;;;7.00;6.50;;;11.70;99.90;;;;;;5035614;28;20452;-67
2022/01/24 09:19:19;;;;;;;7.80;7.10;;;12.80;99.90;;;;;;5035876;28;20467;-67
2022/01/24 09:21:46;;;;;;;7.90;7.30;;;13.40;99.90;;;;;;5035559;28;20486;-67
2022/01/24 09:24:13;;;;;;;7.83;7.23;;;13.90;96.70;;;;;;5037099;28;20465;-66
2022/01/24 09:26:40;;;;;;;8.53;7.80;;;13.30;96.00;;;;;;5044800;28;20904;-66
2022/01/24 09:29:06;;;;;;;8.90;8.20;;;12.50;97.40;;;;;;5045110;28;20444;-68
2022/01/24 09:31:33;;;;;;;7.67;7.03;;;12.00;98.10;;;;;;5036613;28;20823;-66
2022/01/24 09:34:02;;;;;;;7.90;7.40;;;12.20;98.30;;;;;;5035933;28;20452;-67
2022/01/24 09:36:28;;;;;;;7.47;6.87;;;12.40;97.50;;;;;;5035158;28;20459;-66
2022/01/24 09:38:56;;;;;;;7.43;6.83;;;12.70;96.30;;;;;;5035691;28;20453;-67
2022/01/24 09:41:23;;;;;;;8.40;7.80;;;13.60;96.10;;;;;;5035366;28;20521;-66
2022/01/24 09:43:50;;;;;;;7.67;6.97;;;14.40;94.80;;;;;;5035828;28;20475;-66
2022/01/24 09:46:16;;;;;;;7.67;7.00;;;15.10;91.90;;;;;;5035769;28;20454;-67
2022/01/24 09:48:43;;;;;;;7.80;7.10;;;15.50;91.50;;;;;;5035598;28;20458;-68
2022/01/24 09:51:12;;;;;;;6.73;6.33;;;16.20;89.50;;;;;;5035072;28;20979;-66
2022/01/24 09:53:39;;;;;;;7.90;7.10;;;16.80;84.50;;;;;;5035632;28;20481;-67
2022/01/24 09:56:07;;;;;;;8.20;7.40;;;17.60;82.50;;;;;;5036050;28;20455;-67
2022/01/24 09:58:36;;;;;;;6.93;6.50;;;18.00;79.70;;;;;;5036499;28;20459;-67
2022/01/24 10:01:05;;;;;;;7.10;6.60;;;18.60;75.20;;;;;;5035749;28;20484;-67
2022/01/24 10:03:32;;;;;;;7.00;6.40;;;18.40;72.20;;;;;;5035245;28;20460;-67
2022/01/24 10:05:59;;;;;;;6.80;6.23;;;19.10;70.60;;;;;;5035390;28;20997;-67
2022/01/24 10:08:29;;;;;;;7.03;6.47;;;18.50;69.40;;;;;;5038629;28;20467;-67
2022/01/24 10:10:58;;;;;;;7.33;6.80;;;18.70;69.20;;;;;;5036378;28;20468;-66
2022/01/24 10:16:26;;;;;;;6.63;6.13;;;18.30;66.10;;;;;;5034364;28;20511;-68
2022/01/24 10:19:00;;;;;;;6.47;5.23;;;19.00;67.80;;;;;;5035103;28;20440;-67
2022/01/24 10:21:27;;;;;;;6.50;5.90;;;19.90;64.80;;;;;;5034750;28;20492;-67
2022/01/24 10:23:55;;;;;;;6.90;6.40;;;18.40;62.20;;;;;;5034705;28;20455;-68
2022/01/24 10:26:24;;;;;;;6.33;5.83;;;17.90;65.30;;;;;;5034611;28;20452;-68
2022/01/24 10:28:51;;;;;;;5.60;5.20;;;18.30;63.40;;;;;;5034467;28;20951;-67
2022/01/24 10:31:24;;;;;;;6.33;5.83;;;18.60;64.60;;;;;;5034843;28;20486;-68
2022/01/24 10:34:04;;;;;;;5.60;5.17;;;18.30;64.60;;;;;;5034190;28;20915;-67
2022/01/24 10:36:37;;;;;;;6.10;5.57;;;18.50;64.10;;;;;;5035066;28;20835;-67
2022/01/24 10:39:28;;;;;;;6.03;5.53;;;18.70;63.10;;;;;;5033926;28;20784;-67
2022/01/24 10:45:12;;;;;;;5.30;4.90;;;18.80;61.50;;;;;;5027625;28;20451;-68
2022/01/24 10:47:44;;;;;;;5.40;5.00;;;19.20;61.70;;;;;;5033535;28;20467;-67
2022/01/24 10:50:19;;;;;;;5.07;4.77;;;18.80;62.30;;;;;;5033952;28;20432;-67
2022/01/24 10:52:46;;;;;;;5.13;4.83;;;18.90;61.40;;;;;;5034397;28;20439;-68
2022/01/24 10:55:17;;;;;;;5.50;5.20;;;18.90;61.30;;;;;;5033604;28;20459;-68
2022/01/24 10:57:46;;;;;;;4.80;4.50;;;18.70;61.20;;;;;;5034006;28;20433;-68
2022/01/24 11:00:17;;;;;;;5.30;4.80;;;18.60;61.50;;;;;;5034649;28;20783;-68
2022/01/24 11:02:45;;;;;;;4.80;4.20;;;18.60;61.20;;;;;;5035355;28;20441;-67
2022/01/24 11:05:14;;;;;;;4.03;3.83;;;18.30;59.60;;;;;;5033985;28;20810;-68
2022/01/24 11:07:52;;;;;;;3.67;3.47;;;17.70;60.90;;;;;;5033509;28;20463;-68
2022/01/24 11:10:21;;;;;;;4.73;4.33;;;16.90;62.10;;;;;;5033420;28;20847;-68
2022/01/24 11:12:48;;;;;;;4.70;4.30;;;16.10;65.30;;;;;;5034653;28;20460;-68
2022/01/24 11:15:15;;;;;;;5.10;4.70;;;15.20;66.10;;;;;;5034330;28;20455;-67
2022/01/24 11:17:44;;;;;;;5.40;4.60;;;14.60;69.50;;;;;;5033997;28;20973;-67
2022/01/24 11:20:15;;;;;;;4.87;4.47;;;13.90;71.50;;;;;;5034056;28;20546;-69
2022/01/24 11:22:45;;;;;;;4.93;4.60;;;13.10;73.00;;;;;;5033127;28;20909;-67
2022/01/24 11:25:14;;;;;;;4.40;4.00;;;12.20;76.60;;;;;;5033266;28;20454;-67
2022/01/24 11:27:44;;;;;;;5.00;4.50;;;11.90;78.40;;;;;;5033184;28;20459;-67
2022/01/24 11:30:14;;;;;;;4.90;4.50;;;11.50;81.30;;;;;;5034150;28;20772;-68
2022/01/24 11:32:49;;;;;;;4.50;4.20;;;11.10;83.50;;;;;;5033099;28;20458;-69
2022/01/24 11:35:30;;;;;;;4.63;4.23;;;10.90;87.30;;;;;;5033019;28;20432;-69
2022/01/24 11:37:58;;;;;;;4.43;4.13;;;10.70;86.90;;;;;;5033351;28;20440;-67
2022/01/24 11:40:25;;;;;;;4.47;4.17;;;10.40;90.90;;;;;;5037312;28;20503;-68
2022/01/24 11:42:54;;;;;;;4.87;4.37;;;10.20;91.60;;;;;;5036951;28;20459;-67
2022/01/24 11:45:45;;;;;;;3.93;3.70;;;10.00;91.90;;;;;;5032829;28;20500;-67
2022/01/24 11:48:16;;;;;;;4.27;3.87;;;9.90;92.80;;;;;;5033109;28;20780;-67
2022/01/24 11:50:43;;;;;;;4.57;4.27;;;9.80;93.80;;;;;;5032723;28;20836;-67
2022/01/24 11:53:23;;;;;;;4.60;4.27;;;9.70;94.80;;;;;;5032713;28;20464;-67
2022/01/24 11:55:54;;;;;;;5.00;4.60;;;9.60;96.90;;;;;;5032318;28;20461;-67
2022/01/24 11:58:29;;;;;;;5.37;4.83;;;9.40;97.30;;;;;;5032584;28;20450;-67
2022/01/24 12:01:01;;;;;;;6.30;4.50;;;9.40;98.30;;;;;;5035817;28;20488;-68
2022/01/24 12:03:28;;;;;;;5.40;5.00;;;9.50;98.10;;;;;;5036961;28;20455;-68
2022/01/24 12:05:57;;;;;;;5.17;4.77;;;9.40;97.80;;;;;;5036012;28;20454;-67
2022/01/24 12:08:33;;;;;;;4.40;4.13;;;9.40;99.70;;;;;;5035856;28;20943;-68
2022/01/24 12:11:15;;;;;;;4.57;4.20;;;9.40;99.40;;;;;;5036270;28;20479;-68
2022/01/24 12:13:44;;;;;;;5.00;3.80;;;9.20;98.80;;;;;;5035864;28;20812;-67
2022/01/24 12:16:12;;;;;;;5.30;4.13;;;9.30;99.50;;;;;;5035677;28;20938;-67
2022/01/24 12:19:00;;;;;;;5.43;4.50;;;9.30;99.80;;;;;;5035852;28;20971;-67
2022/01/24 12:21:32;;;;;;;11.10;3.83;;;9.10;99.90;;;;;;5035751;28;21062;-67
2022/01/24 12:24:01;;;;;;;5.10;4.70;;;9.20;99.90;;;;;;5036001;28;20444;-68
2022/01/24 12:26:31;;;;;;;4.57;3.77;;;8.90;99.90;;;;;;5036406;28;20807;-67
2022/01/24 12:29:03;;;;;;;4.47;4.17;;;8.80;99.90;;;;;;5035523;28;20463;-67
2022/01/24 12:31:45;;;;;;;7.30;4.00;;;8.80;99.90;;;;;;5035904;28;20481;-67
2022/01/24 12:34:23;;;;;;;4.87;4.47;;;9.00;99.90;;;;;;5035985;28;20438;-67
2022/01/24 12:37:03;;;;;;;5.00;4.60;;;9.10;99.90;;;;;;5035574;28;20450;-67
2022/01/24 12:39:34;;;;;;;3.50;3.30;;;9.20;99.90;;;;;;5035903;28;20449;-68
2022/01/24 12:42:06;;;;;;;4.30;4.00;;;9.20;99.90;;;;;;5035892;28;20476;-67
2022/01/24 12:47:26;;;;;;;4.80;4.40;;;9.10;99.90;;;;;;5035846;28;20515;-67
2022/01/24 12:49:53;;;;;;;6.90;4.70;;;9.20;99.90;;;;;;5037238;28;20470;-67
2022/01/24 12:52:22;;;;;;;5.90;5.30;;;9.20;99.90;;;;;;5035823;28;20469;-68
2022/01/24 12:54:51;;;;;;;5.00;4.50;;;9.20;99.90;;;;;;5035500;28;20457;-68
2022/01/24 12:57:20;;;;;;;5.43;4.70;;;9.10;99.90;;;;;;5036232;28;20455;-67
2022/01/24 12:59:56;;;;;;;5.57;4.80;;;9.10;99.90;;;;;;5035610;28;20499;-67
2022/01/24 13:02:25;;;;;;;5.00;4.60;;;9.00;99.90;;;;;;5034779;28;20479;-68
2022/01/24 13:04:59;;;;;;;5.10;4.70;;;9.20;99.90;;;;;;5035342;28;20936;-67
2022/01/24 13:07:31;;;;;;;4.93;4.63;;;9.20;99.90;;;;;;5035359;28;20436;-67
2022/01/24 13:10:07;;;;;;;6.60;5.20;;;8.90;99.90;;;;;;5035139;28;20771;-68
2022/01/24 13:12:34;;;;;;;5.37;5.07;;;9.00;99.90;;;;;;5044546;28;20496;-67
2022/01/24 13:15:06;;;;;;;4.90;4.40;;;9.00;99.90;;;;;;5039262;28;20523;-67
2022/01/24 13:20:45;;;;;;;7.53;4.90;;;9.20;99.90;;;;;;5034658;28;20419;-68
2022/01/24 13:23:21;;;;;;;5.00;4.60;;;9.30;99.90;;;;;;5034682;28;20441;-68
2022/01/24 13:25:49;;;;;;;6.33;4.50;;;9.30;99.90;;;;;;5034995;28;20520;-67
2022/01/24 13:28:18;;;;;;;4.70;4.30;;;9.40;99.90;;;;;;5034421;28;20452;-68
2022/01/24 13:30:49;;;;;;;6.70;6.00;;;9.40;99.90;;;;;;5034953;28;20474;-67
2022/01/24 13:33:19;;;;;;;4.87;4.40;;;9.20;99.90;;;;;;5034808;28;20854;-68
2022/01/24 13:35:48;;;;;;;5.30;4.90;;;9.10;99.90;;;;;;5034937;28;20455;-67
2022/01/24 13:38:17;;;;;;;4.90;4.40;;;9.00;99.90;;;;;;5035250;28;20452;-67
2022/01/24 13:40:52;;;;;;;5.00;4.60;;;9.00;99.90;;;;;;5034611;28;20543;-67
2022/01/24 13:43:30;;;;;;;4.77;4.37;;;9.10;99.90;;;;;;5034328;28;20557;-67
2022/01/24 13:45:59;;;;;;;4.87;4.47;;;9.20;99.90;;;;;;5034708;28;20437;-67
2022/01/24 13:48:26;;;;;;;4.13;3.83;;;9.10;99.90;;;;;;5034345;28;20548;-66
2022/01/24 13:50:56;;;;;;;4.60;4.20;;;9.10;99.90;;;;;;5034546;28;20478;-66
2022/01/24 13:53:31;;;;;;;5.60;5.07;;;9.00;99.90;;;;;;5034706;28;20926;-66
2022/01/24 13:55:58;;;;;;;4.40;4.00;;;9.00;99.90;;;;;;5034546;28;20459;-67
2022/01/24 13:58:25;;;;;;;5.70;4.40;;;9.10;99.90;;;;;;5034408;28;20483;-66
2022/01/24 14:00:59;;;;;;;5.47;4.93;;;9.10;99.90;;;;;;5034120;28;20493;-67
2022/01/24 14:03:26;;;;;;;4.63;4.23;;;9.00;99.90;;;;;;5034359;28;20437;-66
2022/01/24 14:06:11;;;;;;;5.80;4.57;;;8.80;99.90;;;;;;5034452;28;20466;-66
2022/01/24 14:08:38;;;;;;;5.60;4.53;;;8.60;99.90;;;;;;5034535;28;20462;-67
2022/01/24 14:11:12;;;;;;;6.50;4.47;;;8.60;99.90;;;;;;5033948;28;20469;-67
2022/01/24 14:13:39;;;;;;;7.40;5.00;;;8.80;99.90;;;;;;5034359;28;20805;-66
2022/01/24 14:16:21;;;;;;;5.57;4.47;;;8.80;99.90;;;;;;5034453;28;20454;-67
2022/01/24 14:19:00;;;;;;;4.67;4.27;;;8.80;99.90;;;;;;5033891;28;20925;-67
2022/01/24 14:21:27;;;;;;;4.43;4.13;;;8.80;99.90;;;;;;5033830;28;20487;-67
2022/01/24 14:23:55;;;;;;;5.27;4.10;;;8.80;99.90;;;;;;5033796;28;20455;-67
2022/01/24 14:26:24;;;;;;;4.83;4.17;;;8.90;99.90;;;;;;5033787;28;20968;-66
2022/01/24 14:29:08;;;;;;;4.97;4.47;;;8.80;99.90;;;;;;5034720;28;20459;-67
2022/01/24 14:31:37;;;;;;;5.77;4.70;;;8.80;99.90;;;;;;5034233;28;20843;-67
2022/01/24 14:34:06;;;;;;;4.57;4.13;;;8.80;99.90;;;;;;5034819;28;20460;-66
2022/01/24 14:36:34;;;;;;;5.33;4.90;;;9.00;99.90;;;;;;5034017;28;20446;-67
2022/01/24 14:39:04;;;;;;;5.03;4.23;;;8.80;99.90;;;;;;5033762;28;20967;-67
2022/01/24 14:41:35;;;;;;;5.13;4.40;;;8.90;99.90;;;;;;5034855;28;20481;-66
2022/01/24 14:46:51;;;;;;;5.10;4.20;;;9.00;99.90;;;;;;5046129;28;20847;-67
2022/01/24 14:49:20;;;;;;;6.50;3.80;;;8.80;99.90;;;;;;5051410;28;20458;-67
2022/01/24 14:51:47;;;;;;;4.70;4.30;;;8.70;99.90;;;;;;5037288;28;20469;-67
2022/01/24 14:54:17;;;;;;;4.90;3.50;;;8.80;99.90;;;;;;5033843;28;20455;-67
2022/01/24 14:56:46;;;;;;;5.47;3.93;;;8.90;99.90;;;;;;5033970;28;20443;-66
2022/01/24 14:59:13;;;;;;;4.27;3.87;;;8.90;99.90;;;;;;5034474;28;20849;-67
2022/01/24 15:01:40;;;;;;;4.57;3.87;;;8.90;99.90;;;;;;5033415;28;20492;-66
2022/01/24 15:04:09;;;;;;;4.20;3.80;;;9.00;99.90;;;;;;5033770;28;20457;-66
2022/01/24 15:06:36;;;;;;;4.73;3.87;;;9.00;99.90;;;;;;5034157;28;20467;-66
2022/01/24 15:09:06;;;;;;;5.53;3.87;;;9.00;99.90;;;;;;5033402;28;20968;-67
2022/01/24 15:11:35;;;;;;;3.93;3.50;;;9.00;99.90;;;;;;5033213;28;20474;-68
2022/01/24 15:14:06;;;;;;;5.33;4.23;;;8.90;99.90;;;;;;5035452;28;20490;-68
2022/01/24 15:16:41;;;;;;;4.53;4.00;;;8.90;99.90;;;;;;5035402;28;20449;-66
2022/01/24 15:25:17;;;;;;;4.83;4.10;;;8.90;99.90;;;;;;5033261;28;20421;-67
2022/01/24 15:27:26;;;;;;;4.27;3.87;;;8.70;99.90;;;;;;5032895;28;20553;-66
2022/01/24 15:29:52;;;;;;;4.30;3.47;;;8.60;99.90;;;;;;5033483;28;20458;-66
2022/01/24 15:32:19;;;;;;;6.50;4.47;;;8.60;99.90;;;;;;5033376;28;20517;-66
2022/01/24 15:34:47;;;;;;;4.47;3.83;;;8.60;99.90;;;;;;5035405;28;20464;-68
2022/01/24 15:37:14;;;;;;;4.23;3.70;;;8.60;99.90;;;;;;5037280;28;20460;-66
2022/01/24 15:39:41;;;;;;;6.20;4.50;;;8.60;99.90;;;;;;5036871;28;20927;-66
2022/01/24 15:42:14;;;;;;;4.60;3.90;;;8.50;99.90;;;;;;5037190;28;20482;-66
2022/01/24 15:47:36;;;;;;;5.00;3.93;;;8.30;99.90;;;;;;5037309;28;20436;-66
2022/01/24 15:50:08;;;;;;;4.47;3.63;;;8.20;99.90;;;;;;5041030;28;20440;-66
2022/01/24 15:52:36;;;;;;;5.00;3.70;;;8.10;99.90;;;;;;5041164;28;20491;-67
2022/01/24 15:55:06;;;;;;;6.30;4.03;;;8.10;99.90;;;;;;5040993;28;20457;-66
2022/01/24 15:57:42;;;;;;;6.23;3.77;;;8.00;99.90;;;;;;5039786;28;20528;-66
2022/01/24 16:00:20;;;;;;;4.37;3.80;;;7.90;99.90;;;;;;5038833;28;20912;-67
2022/01/24 16:02:49;;;;;;;5.00;3.63;;;7.80;99.90;;;;;;5037276;28;20464;-67
2022/01/24 16:05:19;;;;;;;5.67;4.57;;;7.80;99.90;;;;;;5037589;28;20491;-67
2022/01/24 16:07:47;;;;;;;4.70;4.30;;;7.70;99.90;;;;;;5037360;28;20436;-67
2022/01/24 16:10:16;;;;;;;4.93;3.70;;;7.60;99.90;;;;;;5037077;28;20468;-67
2022/01/24 16:12:46;;;;;;;6.73;3.70;;;7.60;99.90;;;;;;5036667;28;20440;-66
2022/01/24 16:15:14;;;;;;;4.40;3.50;;;7.50;99.90;;;;;;5037425;28;20860;-66
2022/01/24 16:17:41;;;;;;;4.07;3.50;;;7.50;99.90;;;;;;5046376;28;20449;-67
2022/01/24 16:20:20;;;;;;;4.80;4.00;;;7.40;99.90;;;;;;5037416;28;20461;-66
2022/01/24 16:25:44;;;;;;;5.70;4.00;;;7.30;99.90;;;;;;5012880;28;20444;-67
2022/01/24 16:28:12;;;;;;;5.23;4.73;;;7.30;99.90;;;;;;5037078;28;20452;-69
2022/01/24 16:30:40;;;;;;;3.83;3.50;;;7.20;99.90;;;;;;5037061;28;20473;-67
2022/01/24 16:33:08;;;;;;;5.60;4.30;;;7.10;99.90;;;;;;5036839;28;20868;-67
2022/01/24 16:35:36;;;;;;;5.77;4.43;;;7.10;99.90;;;;;;5037524;28;20464;-68
2022/01/24 16:38:06;;;;;;;9.97;4.30;;;7.00;99.90;;;;;;5037298;28;20459;-67
2022/01/24 16:40:40;;;;;;;4.37;3.97;;;7.00;99.90;;;;;;5037401;28;20535;-67
2022/01/24 16:43:24;;;;;;;5.33;4.90;;;7.00;99.90;;;;;;5037319;28;20465;-66
2022/01/24 16:48:38;;;;;;;6.10;5.50;;;6.90;99.90;;;;;;5036496;28;20423;-66
2022/01/24 16:51:06;;;;;;;5.13;4.63;;;6.80;99.90;;;;;;5036384;28;20469;-66
2022/01/24 16:53:36;;;;;;;5.70;4.87;;;6.80;99.90;;;;;;5036285;28;20455;-66
2022/01/24 16:56:02;;;;;;;5.53;5.03;;;6.70;99.90;;;;;;5035904;28;20452;-67
2022/01/24 16:58:31;;;;;;;10.50;6.37;;;6.70;99.90;;;;;;5035948;28;20480;-67
2022/01/24 17:00:59;;;;;;;6.30;4.90;;;6.70;99.90;;;;;;5035711;28;20516;-67
2022/01/24 17:03:26;;;;;;;6.73;5.30;;;6.70;99.90;;;;;;5036306;28;20821;-67
2022/01/24 17:05:53;;;;;;;7.67;4.80;;;6.70;99.90;;;;;;5035377;28;20452;-66
2022/01/24 17:08:20;;;;;;;5.13;4.50;;;6.70;99.90;;;;;;5035510;28;20460;-68
2022/01/24 17:10:49;;;;;;;5.57;4.33;;;6.60;99.90;;;;;;5035631;28;20499;-67
2022/01/24 17:13:17;;;;;;;5.27;4.77;;;6.60;99.90;;;;;;5035463;28;20452;-67
2022/01/24 17:15:47;;;;;;;6.17;5.10;;;6.60;99.90;;;;;;5035341;28;20460;-67
2022/01/24 17:18:15;;;;;;;5.50;4.80;;;6.60;99.90;;;;;;5035237;28;20471;-67
2022/01/24 17:20:43;;;;;;;5.37;4.73;;;6.60;99.90;;;;;;5035744;28;20469;-68
2022/01/24 17:23:09;;;;;;;6.03;5.40;;;6.60;99.90;;;;;;5035305;28;20477;-67
2022/01/24 17:25:36;;;;;;;9.43;4.40;;;6.50;99.90;;;;;;5035192;28;20790;-67
2022/01/24 17:28:06;;;;;;;10.63;5.70;;;6.50;99.90;;;;;;5035279;28;20453;-67
2022/01/24 17:30:33;;;;;;;7.60;5.43;;;6.40;99.90;;;;;;5042206;28;20452;-68
2022/01/24 17:33:00;;;;;;;6.30;5.67;;;6.40;99.90;;;;;;5051492;28;20449;-67
2022/01/24 17:35:29;;;;;;;6.00;5.17;;;6.40;99.90;;;;;;5036028;28;20452;-67
2022/01/24 17:37:57;;;;;;;5.67;5.20;;;6.40;99.90;;;;;;5035472;28;20460;-68
2022/01/24 17:40:24;;;;;;;8.10;6.87;;;6.30;99.90;;;;;;5034979;28;20460;-67
2022/01/24 17:42:53;;;;;;;11.03;7.10;;;6.30;99.90;;;;;;5034854;28;20545;-67
2022/01/24 17:45:22;;;;;;;7.30;6.37;;;6.30;99.90;;;;;;5035171;28;20458;-67
2022/01/24 17:47:49;;;;;;;8.57;5.27;;;6.20;99.90;;;;;;5036091;28;20452;-68
2022/01/24 17:50:17;;;;;;;7.60;5.73;;;6.20;99.90;;;;;;5044355;28;20459;-68
2022/01/24 17:52:45;;;;;;;7.87;5.00;;;6.10;99.90;;;;;;5035309;28;20450;-67
2022/01/24 17:55:14;;;;;;;6.20;5.33;;;6.10;99.90;;;;;;5035151;28;20460;-68
2022/01/24 17:57:41;;;;;;;7.37;5.40;;;6.10;99.90;;;;;;5034829;28;20456;-68
2022/01/24 18:00:10;;;;;;;11.27;6.53;;;6.10;99.90;;;;;;5035047;28;20463;-68
2022/01/24 18:02:40;;;;;;;7.93;5.87;;;6.00;99.90;;;;;;5034811;28;20840;-68
2022/01/24 18:05:07;;;;;;;7.83;5.87;;;6.00;99.90;;;;;;5034649;28;20507;-67
2022/01/24 18:07:34;;;;;;;14.60;7.27;;;6.00;99.90;;;;;;5034680;28;20879;-68
2022/01/24 18:10:01;;;;;;;6.97;5.97;;;5.90;99.90;;;;;;5034140;28;20552;-67
2022/01/24 18:12:27;;;;;;;11.90;6.87;;;5.90;99.90;;;;;;5035827;28;20477;-68
2022/01/24 18:14:54;;;;;;;8.57;6.33;;;5.80;99.90;;;;;;5034578;28;20480;-67
2022/01/24 18:17:21;;;;;;;11.23;7.13;;;5.80;99.90;;;;;;5034526;28;20961;-67
2022/01/24 18:19:49;;;;;;;7.87;6.43;;;5.80;99.90;;;;;;5034440;28;20456;-67
2022/01/24 18:22:16;;;;;;;7.93;7.03;;;5.70;99.90;;;;;;5034417;28;20491;-67
2022/01/24 18:24:42;;;;;;;7.93;7.07;;;5.70;99.90;;;;;;5034560;28;20459;-67
2022/01/24 18:27:10;;;;;;;7.53;6.70;;;5.70;99.90;;;;;;5034627;28;20517;-67
2022/01/24 18:29:37;;;;;;;11.13;7.03;;;5.60;99.90;;;;;;5034010;28;20966;-67
2022/01/24 18:32:04;;;;;;;8.30;6.43;;;5.60;99.90;;;;;;5034124;28;20482;-66
2022/01/24 18:34:30;;;;;;;7.17;6.47;;;5.60;99.90;;;;;;5034241;28;20448;-66
2022/01/24 18:36:59;;;;;;;8.20;7.40;;;5.60;99.90;;;;;;5034005;28;20457;-66
2022/01/24 18:39:25;;;;;;;10.67;7.40;;;5.60;99.90;;;;;;5034057;28;20463;-66